Latest Weather Observations for Legendre Island

IDW60801

Issued at 4:15 pm WST Monday 26 January 2015 (issued every 30 minutes, with the page automatically refreshed every 10 minutes)

About weather observations | Map of weather stations | Latest weather observations for WA | Other Formats
Station Details ID: 004095 Name: LEGENDRE ISLAND Lat: -20.36 Lon: 116.84 Height: 29.0 m
Data from the previous 72 hours. | See also: Recent months for locations in Western Australia
Date/Time
WST
Temp
°C
App
Temp
°C
Dew
Point
Rel
Hum
%
Delta-T
°C
Wind Press
QNH
hPa
Press
MSL
hPa
Rain
since 9 am
mm
Dir
 
Spd
km/h
Gust
km/h
Spd
kts
Gust
kts
26/04:00pm 30.2 31.6 22.9 65 5.0 NNW 20 24 11 13 1005.3 1005.1 -
26/03:30pm 30.4 31.7 22.6 63 5.3 NNW 20 24 11 13 1005.5 1005.3 -
26/03:00pm 30.3 32.1 23.2 65 4.9 NNW 19 22 10 12 1005.7 1005.5 -
26/02:30pm 30.3 32.1 23.2 65 4.9 NNW 19 22 10 12 1005.8 1005.6 -
26/02:00pm 30.6 32.9 23.5 66 4.9 NNW 17 22 9 12 1005.9 1005.7 -
26/01:30pm 30.3 33.1 23.7 68 4.6 N 15 17 8 9 1006.2 1006.0 -
26/01:00pm 29.9 32.9 23.3 67 4.5 N 13 17 7 9 1006.7 1006.5 -
26/12:30pm 29.7 33.2 23.6 69 4.2 N 11 13 6 7 1006.9 1006.7 -
26/12:00pm 29.8 33.6 24.0 71 4.0 NNW 11 15 6 8 1007.0 1006.8 -
26/11:30am 29.9 33.2 24.5 73 3.8 N 15 17 8 9 1007.2 1007.0 -
26/11:00am 29.5 32.3 23.7 71 4.0 N 15 17 8 9 1007.5 1007.3 -
26/10:30am 29.3 31.7 23.0 69 4.3 N 15 17 8 9 1007.8 1007.6 -
26/10:00am 29.6 33.0 23.3 69 4.3 N 11 15 6 8 1007.9 1007.7 -
26/09:30am 28.6 31.7 22.8 71 4.0 N 11 13 6 7 1008.0 1007.8 -
26/09:00am 28.9 31.9 24.0 75 3.4 N 15 17 8 9 1008.1 1007.9 -
26/08:30am 28.4 32.0 23.8 76 3.2 N 11 13 6 7 1008.1 1007.9 -
26/08:00am 28.0 33.1 24.6 82 2.4 NNE 6 7 3 4 1008.2 1008.0 -
26/07:30am 27.2 32.1 24.3 84 2.0 NE 6 7 3 4 1007.9 1007.7 -
26/07:00am 26.8 32.1 24.3 86 1.7 NW 4 4 2 2 1008.0 1007.8 -
26/06:30am 26.4 32.0 24.2 88 1.5 WSW 2 6 1 3 1007.7 1007.5 -
26/06:00am 26.2 30.4 24.1 88 1.4 W 9 13 5 7 1006.9 1006.7 -
26/05:30am 26.1 29.7 24.3 90 1.2 W 13 17 7 9 1006.3 1006.1 -
26/05:00am 26.1 28.9 24.3 90 1.2 W 17 20 9 11 1005.7 1005.5 -
26/04:30am 26.0 28.5 24.4 91 1.1 W 19 24 10 13 1005.4 1005.2 -
26/04:00am 26.0 28.5 24.4 91 1.1 W 19 24 10 13 1005.3 1005.1 -
26/03:30am 26.1 28.1 24.5 91 1.1 W 22 28 12 15 1005.3 1005.1 -
26/03:00am 26.1 28.1 24.5 91 1.1 W 22 28 12 15 1005.3 1005.1 -
26/02:30am 26.1 28.6 24.5 91 1.1 W 19 22 10 12 1005.6 1005.4 -
26/02:00am 26.2 28.9 24.8 92 1.0 W 19 24 10 13 1006.0 1005.8 -
26/01:30am 26.2 27.7 25.0 93 0.8 W 26 32 14 17 1005.6 1005.4 -
26/01:00am 26.3 27.1 25.1 93 0.8 WNW 30 37 16 20 1005.1 1004.9 -
26/12:30am 26.6 27.7 25.6 94 0.7 WNW 30 33 16 18 1005.5 1005.3 -
26/12:00am 26.5 28.4 25.6 95 0.6 NW 26 32 14 17 1005.5 1005.3 -
 
Date/Time
WST
Temp
°C
App
Temp
°C
Dew
Point
Rel
Hum
%
Delta-T
°C
Wind Press
QNH
hPa
Press
MSL
hPa
Rain
since 9 am
mm
Dir
 
Spd
km/h
Gust
km/h
Spd
kts
Gust
kts
25/11:30pm 26.6 29.7 25.7 95 0.6 NW 20 24 11 13 1006.0 1005.8 -
25/11:00pm 26.9 30.7 25.9 94 0.7 NW 17 22 9 12 1006.4 1006.2 -
25/10:30pm 27.1 31.3 25.9 93 0.8 NNW 15 19 8 10 1006.8 1006.6 -
25/10:00pm 27.2 32.1 25.8 92 1.0 NW 11 15 6 8 1006.9 1006.7 -
25/09:30pm 27.1 33.9 25.5 91 1.1 CALM 0 6 0 3 1007.6 1007.4 -
25/09:00pm 27.4 34.5 26.0 92 1.0 CALM 0 0 0 0 1008.0 1007.8 -
25/08:30pm 27.3 33.6 25.9 92 1.0 W 4 6 2 3 1007.9 1007.7 -
25/08:00pm 27.5 32.2 26.1 92 1.0 WNW 13 17 7 9 1007.5 1007.3 -
25/07:30pm 27.7 32.0 26.1 91 1.1 NW 15 19 8 10 1007.1 1006.9 -
25/07:00pm 27.9 32.5 25.9 89 1.4 NNW 13 15 7 8 1007.1 1006.9 -
25/06:30pm 28.4 33.4 26.0 87 1.7 NW 11 15 6 8 1007.1 1006.9 -
25/06:00pm 28.7 33.5 25.7 84 2.1 NW 11 15 6 8 1006.8 1006.6 -
25/05:30pm 29.4 33.7 26.6 85 2.0 NW 17 19 9 10 1006.2 1006.0 -
25/05:00pm 29.4 33.0 26.2 83 2.3 NW 19 22 10 12 1005.8 1005.6 -
25/04:30pm 29.6 32.9 26.0 81 2.6 NNW 20 24 11 13 1005.3 1005.1 -
25/04:00pm 30.2 33.6 26.1 79 2.9 NNW 20 24 11 13 1005.5 1005.3 -
25/03:30pm 30.5 34.1 26.4 79 2.9 NNW 20 24 11 13 1005.8 1005.6 -
25/03:00pm 30.8 34.4 26.5 78 3.1 NNW 20 24 11 13 1006.2 1006.0 -
25/02:30pm 30.4 34.1 26.6 80 2.7 NNW 20 24 11 13 1006.5 1006.3 -
25/02:00pm 30.4 34.1 26.6 80 2.7 N 20 26 11 14 1006.6 1006.4 -
25/01:30pm 29.9 32.6 26.3 81 2.6 N 24 26 13 14 1006.8 1006.6 -
25/01:00pm 30.3 34.1 27.3 84 2.2 N 22 26 12 14 1007.0 1006.8 -
25/12:30pm 30.7 34.4 27.1 81 2.6 NNE 22 24 12 13 1007.5 1007.3 -
25/12:00pm 31.0 34.8 26.7 78 3.1 NNE 20 22 11 12 1007.9 1007.7 -
25/11:30am 29.6 33.1 24.9 76 3.3 NNE 15 17 8 9 1008.2 1008.0 -
25/11:00am 30.2 34.9 26.1 79 2.9 NNW 13 19 7 10 1007.9 1007.7 -
25/10:30am 30.7 33.7 26.2 77 3.2 WNW 22 26 12 14 1007.3 1007.1 -
25/10:00am 30.0 31.5 24.9 74 3.6 WNW 26 32 14 17 1006.8 1006.6 -
25/09:30am 30.2 31.8 25.7 77 3.2 WNW 28 33 15 18 1006.5 1006.3 -
25/09:00am 29.6 32.5 26.0 81 2.6 WNW 22 28 12 15 1006.7 1006.5 -
25/08:30am 29.3 33.8 27.5 90 1.3 NW 19 24 10 13 1007.0 1006.8 -
25/08:00am 28.3 33.9 28.0 98 0.2 NNW 15 19 8 10 1007.2 1007.0 -
25/07:30am 27.7 33.7 27.5 99 0.1 NNW 11 15 6 8 1006.8 1006.6 -
25/07:00am 27.4 31.8 27.4 100 0.0 NW 19 22 10 12 1006.0 1005.8 -
25/06:30am 27.3 32.0 27.3 100 0.0 NW 17 20 9 11 1005.5 1005.3 -
25/06:00am 27.2 32.3 27.2 100 0.0 WNW 15 22 8 12 1005.3 1005.1 -
25/05:30am 27.3 32.4 27.3 100 0.0 NW 15 20 8 11 1005.1 1004.9 -
25/05:00am 27.3 31.5 27.3 100 0.0 WNW 20 28 11 15 1004.5 1004.3 -
25/04:30am 27.3 30.7 27.3 100 0.0 WNW 24 30 13 16 1004.2 1004.0 -
25/04:00am 27.3 31.7 27.3 100 0.0 WNW 19 24 10 13 1004.4 1004.2 -
25/03:30am 27.3 31.7 27.3 100 0.0 WNW 19 24 10 13 1004.2 1004.0 -
25/03:00am 27.4 30.9 27.4 100 0.0 WNW 24 30 13 16 1003.8 1003.6 -
25/02:30am 27.4 30.9 27.4 100 0.0 W 24 28 13 15 1003.7 1003.5 -
25/02:00am 27.3 29.6 27.3 100 0.0 WNW 30 37 16 20 1003.7 1003.5 -
25/01:30am 27.3 30.0 27.3 100 0.0 WNW 28 32 15 17 1003.8 1003.6 -
25/01:00am 27.3 31.1 27.3 100 0.0 WNW 22 28 12 15 1004.6 1004.4 -
25/12:30am 27.6 32.6 27.6 100 0.0 NNW 17 19 9 10 1005.2 1005.0 -
25/12:00am 27.5 33.2 27.5 100 0.0 WNW 13 15 7 8 1005.9 1005.7 -
 
Date/Time
WST
Temp
°C
App
Temp
°C
Dew
Point
Rel
Hum
%
Delta-T
°C
Wind Press
QNH
hPa
Press
MSL
hPa
Rain
since 9 am
mm
Dir
 
Spd
km/h
Gust
km/h
Spd
kts
Gust
kts
24/11:30pm 27.5 33.3 27.2 98 0.2 WNW 11 15 6 8 1006.1 1005.9 -
24/11:00pm 27.8 32.4 27.1 96 0.5 WSW 17 20 9 11 1006.5 1006.3 -
24/10:30pm 27.9 32.1 27.4 97 0.4 W 20 24 11 13 1005.9 1005.7 -
24/10:00pm 27.9 32.3 27.4 97 0.4 WSW 19 26 10 14 1005.8 1005.6 -
24/09:30pm 27.9 31.4 27.4 97 0.4 W 24 28 13 15 1005.1 1004.9 -
24/09:00pm 28.0 31.7 27.1 95 0.6 W 22 26 12 14 1005.1 1004.9 -
24/08:30pm 28.1 31.7 27.0 94 0.8 WSW 22 26 12 14 1005.0 1004.8 -
24/08:00pm 28.1 30.9 26.9 93 0.9 W 26 32 14 17 1004.8 1004.6 -
24/07:30pm 28.1 30.2 27.0 94 0.8 W 30 33 16 18 1004.5 1004.3 -
24/07:00pm 28.3 31.8 27.4 95 0.7 W 24 32 13 17 1004.2 1004.0 -
24/06:30pm 28.7 32.0 27.6 94 0.8 W 26 32 14 17 1003.8 1003.6 -
24/06:00pm 29.1 33.0 27.5 91 1.2 W 22 28 12 15 1003.5 1003.3 -
24/05:30pm 29.7 33.5 27.3 87 1.7 W 22 28 12 15 1003.3 1003.1 -
24/05:00pm 29.6 32.8 27.0 86 1.9 W 24 30 13 16 1003.2 1003.0 -
24/04:30pm 29.7 33.1 27.3 87 1.7 W 24 30 13 16 1003.2 1003.0 -
24/04:00pm 29.7 32.9 27.5 88 1.6 W 26 32 14 17 1003.1 1002.9 -
24/03:30pm 30.0 33.3 27.2 85 2.0 W 24 28 13 15 1003.5 1003.3 -
24/03:00pm 30.7 34.0 26.6 79 3.0 W 22 26 12 14 1003.8 1003.6 -
24/02:30pm 31.4 34.4 26.7 76 3.4 W 24 28 13 15 1004.1 1003.9 -
24/02:00pm 32.6 37.0 27.6 75 3.7 W 20 26 11 14 1004.2 1004.0 -
24/01:30pm 31.9 35.5 26.4 72 3.9 WNW 20 24 11 13 1004.5 1004.3 -
24/01:00pm 34.1 37.3 24.9 58 6.5 W 17 20 9 11 1004.9 1004.7 -
24/12:30pm 34.1 37.8 25.2 59 6.3 W 15 17 8 9 1005.2 1005.0 -
24/12:00pm 35.0 38.9 24.3 54 7.6 W 11 15 6 8 1005.5 1005.3 -
24/11:30am 34.9 39.1 25.4 58 6.8 WSW 13 17 7 9 1005.9 1005.7 -
24/11:00am 33.7 37.7 26.2 65 5.4 WSW 17 20 9 11 1006.0 1005.8 -
24/10:30am 33.4 37.9 26.9 69 4.7 WSW 17 20 9 11 1006.2 1006.0 -
24/10:00am 30.7 35.5 28.1 86 1.9 WSW 20 22 11 12 1006.4 1006.2 -
24/09:30am 30.5 35.0 28.3 88 1.6 SW 22 28 12 15 1006.5 1006.3 -
24/09:00am 29.9 35.5 29.7 99 0.1 WSW 22 28 12 15 1006.8 1006.6 -
24/08:30am 29.0 35.4 29.0 100 0.0 W 15 17 8 9 1006.4 1006.2 -
24/08:00am 28.3 33.2 28.3 100 0.0 WSW 20 24 11 13 1006.0 1005.8 -
24/07:30am 28.1 32.5 28.1 100 0.0 WSW 22 26 12 14 1006.0 1005.8 -
24/07:00am 27.8 31.6 27.8 100 0.0 WSW 24 30 13 16 1005.9 1005.7 -
24/06:30am 28.0 31.9 28.0 100 0.0 SW 24 30 13 16 1005.5 1005.3 -
24/06:00am 27.8 32.0 27.8 100 0.0 WSW 22 28 12 15 1005.2 1005.0 -
24/05:30am 27.6 32.0 27.6 100 0.0 WSW 20 26 11 14 1004.7 1004.5 -
24/05:00am 27.7 31.8 27.7 100 0.0 WSW 22 30 12 16 1004.4 1004.2 -
24/04:30am 27.9 30.8 27.7 99 0.1 W 28 32 15 17 1003.7 1003.5 -
24/04:00am 27.8 31.4 27.6 99 0.1 WNW 24 35 13 19 1003.5 1003.3 -
24/03:30am 27.8 32.3 27.5 98 0.2 N 19 26 10 14 1003.8 1003.6 -
24/03:00am 28.4 33.8 28.2 99 0.1 WSW 17 30 9 16 1003.8 1003.6 -
24/02:30am 28.5 33.6 28.3 99 0.1 SW 19 28 10 15 1003.3 1003.1 -
24/02:00am 28.2 35.1 28.2 100 0.0 SSW 9 20 5 11 1003.8 1003.6 -
24/01:30am 28.2 31.5 28.2 100 0.0 SW 28 33 15 18 1003.5 1003.3 -
24/01:00am 28.1 30.8 27.9 99 0.1 W 30 39 16 21 1003.3 1003.1 -
24/12:30am 28.5 33.2 28.0 97 0.4 WSW 20 33 11 18 1003.6 1003.4 -
24/12:13am 27.9 30.2 27.9 100 0.0 WSW 32 52 17 28 1003.8 1003.6 -
24/12:00am 28.2 29.8 28.2 100 0.0 WSW 37 46 20 25 1003.9 1003.7 -
 
Date/Time
WST
Temp
°C
App
Temp
°C
Dew
Point
Rel
Hum
%
Delta-T
°C
Wind Press
QNH
hPa
Press
MSL
hPa
Rain
since 9 am
mm
Dir
 
Spd
km/h
Gust
km/h
Spd
kts
Gust
kts
23/11:30pm 27.6 27.1 27.6 100 0.0 SW 46 61 25 33 1003.6 1003.4 -
23/11:00pm 28.0 30.2 28.0 100 0.0 WSW 33 44 18 24 1004.3 1004.1 -
23/10:30pm 28.2 28.7 28.2 100 0.0 SW 43 54 23 29 1004.8 1004.6 -
23/10:24pm 28.1 27.5 28.1 100 0.0 SSW 48 59 26 32 1004.4 1004.2 -
23/10:11pm 27.8 28.0 27.8 100 0.0 S 43 63 23 34 1004.2 1004.0 -
23/10:00pm 27.6 28.4 27.6 100 0.0 SSW 39 54 21 29 1005.1 1004.9 -
23/09:42pm 27.6 29.1 27.6 100 0.0 SW 35 50 19 27 1005.5 1005.3 -
23/09:30pm 27.5 26.9 27.5 100 0.0 WSW 46 56 25 30 1004.1 1003.9 -
23/09:16pm 27.8 27.0 27.8 100 0.0 W 48 61 26 33 1003.4 1003.2 -
23/09:07pm 28.4 32.0 28.1 98 0.2 W 26 43 14 23 1004.4 1004.2 -
23/09:00pm 28.5 34.5 28.0 97 0.4 W 13 22 7 12 1005.6 1005.4 -
23/08:30pm 28.6 28.6 27.9 96 0.5 WSW 44 54 24 29 1004.2 1004.0 -
23/08:00pm 28.1 27.6 27.2 95 0.6 SW 44 59 24 32 1004.8 1004.6 -
23/07:57pm 28.0 27.7 27.1 95 0.6 WSW 43 56 23 30 1005.1 1004.9 -
23/07:30pm 27.8 26.2 26.7 94 0.8 WSW 48 57 26 31 1003.4 1003.2 -
23/07:00pm 27.9 26.2 26.5 92 1.0 WSW 48 59 26 32 1003.2 1003.0 -
23/06:30pm 28.2 26.9 26.0 88 1.6 WSW 44 56 24 30 1002.8 1002.6 -
23/06:00pm 28.9 27.6 25.9 84 2.1 WSW 44 54 24 29 1002.5 1002.3 -
23/05:30pm 29.6 28.5 26.2 82 2.4 WSW 44 56 24 30 1002.7 1002.5 -
23/05:00pm 29.9 28.6 25.9 79 2.9 W 44 54 24 29 1002.4 1002.2 -
23/04:30pm 30.1 28.6 25.6 77 3.2 W 44 57 24 31 1002.5 1002.3 -

Other Formats:

Comma delimited format used in spreadsheet applications
http://www.bom.gov.au/fwo/IDW60801/IDW60801.94307.axf

JavaScript Object Notation format (JSON) in row-major order
http://www.bom.gov.au/fwo/IDW60801/IDW60801.94307.json